sensor_id;sensor_type;location;lat;lon;timestamp;P1;durP1;ratioP1;P2;durP2;ratioP2
34405;SDS011;20658;45.630;8.886;2022-09-23T00:01:03;13.68;;;7.57;;
34405;SDS011;20658;45.630;8.886;2022-09-23T00:03:34;15.35;;;8.55;;
34405;SDS011;20658;45.630;8.886;2022-09-23T00:06:12;14.30;;;7.60;;
34405;SDS011;20658;45.630;8.886;2022-09-23T00:08:43;17.13;;;7.70;;
34405;SDS011;20658;45.630;8.886;2022-09-23T00:11:13;16.20;;;8.48;;
34405;SDS011;20658;45.630;8.886;2022-09-23T00:13:49;18.63;;;8.23;;
34405;SDS011;20658;45.630;8.886;2022-09-23T00:16:20;16.85;;;8.35;;
34405;SDS011;20658;45.630;8.886;2022-09-23T00:18:57;17.52;;;8.38;;
34405;SDS011;20658;45.630;8.886;2022-09-23T00:21:31;19.08;;;8.73;;
34405;SDS011;20658;45.630;8.886;2022-09-23T00:24:04;16.13;;;7.38;;
34405;SDS011;20658;45.630;8.886;2022-09-23T00:26:39;22.83;;;10.20;;
34405;SDS011;20658;45.630;8.886;2022-09-23T00:29:08;20.23;;;8.88;;
34405;SDS011;20658;45.630;8.886;2022-09-23T00:31:41;23.42;;;9.88;;
34405;SDS011;20658;45.630;8.886;2022-09-23T00:34:09;16.35;;;9.23;;
34405;SDS011;20658;45.630;8.886;2022-09-23T00:36:43;17.50;;;8.90;;
34405;SDS011;20658;45.630;8.886;2022-09-23T00:39:11;18.23;;;9.85;;
34405;SDS011;20658;45.630;8.886;2022-09-23T00:41:46;19.40;;;8.50;;
34405;SDS011;20658;45.630;8.886;2022-09-23T00:47:19;17.17;;;8.15;;
34405;SDS011;20658;45.630;8.886;2022-09-23T00:49:53;16.65;;;8.18;;
34405;SDS011;20658;45.630;8.886;2022-09-23T00:52:28;14.27;;;8.15;;
34405;SDS011;20658;45.630;8.886;2022-09-23T00:55:04;13.70;;;7.60;;
34405;SDS011;20658;45.630;8.886;2022-09-23T00:57:43;17.55;;;8.80;;
34405;SDS011;20658;45.630;8.886;2022-09-23T01:00:19;15.93;;;7.85;;
34405;SDS011;20658;45.630;8.886;2022-09-23T01:02:53;20.60;;;8.02;;
34405;SDS011;20658;45.630;8.886;2022-09-23T01:05:26;18.88;;;7.85;;
34405;SDS011;20658;45.630;8.886;2022-09-23T01:07:55;16.05;;;6.78;;
34405;SDS011;20658;45.630;8.886;2022-09-23T01:10:31;15.85;;;7.40;;
34405;SDS011;20658;45.630;8.886;2022-09-23T01:13:10;16.48;;;7.03;;
34405;SDS011;20658;45.630;8.886;2022-09-23T01:15:52;15.75;;;6.55;;
34405;SDS011;20658;45.630;8.886;2022-09-23T01:18:34;11.82;;;6.20;;
34405;SDS011;20658;45.630;8.886;2022-09-23T01:21:20;10.93;;;5.50;;
34405;SDS011;20658;45.630;8.886;2022-09-23T01:24:07;12.02;;;5.53;;
34405;SDS011;20658;45.630;8.886;2022-09-23T01:27:04;12.70;;;5.53;;
34405;SDS011;20658;45.630;8.886;2022-09-23T01:30:02;8.55;;;4.68;;
34405;SDS011;20658;45.630;8.886;2022-09-23T01:32:55;12.02;;;5.00;;
34405;SDS011;20658;45.630;8.886;2022-09-23T01:35:45;11.25;;;5.20;;
34405;SDS011;20658;45.630;8.886;2022-09-23T01:38:31;11.95;;;4.95;;
34405;SDS011;20658;45.630;8.886;2022-09-23T01:41:13;15.63;;;4.78;;
34405;SDS011;20658;45.630;8.886;2022-09-23T01:44:03;11.63;;;4.72;;
34405;SDS011;20658;45.630;8.886;2022-09-23T01:46:42;14.52;;;4.57;;
34405;SDS011;20658;45.630;8.886;2022-09-23T01:49:24;11.98;;;5.05;;
34405;SDS011;20658;45.630;8.886;2022-09-23T01:52:03;14.00;;;5.05;;
34405;SDS011;20658;45.630;8.886;2022-09-23T01:54:41;10.90;;;4.45;;
34405;SDS011;20658;45.630;8.886;2022-09-23T01:57:22;10.73;;;4.60;;
34405;SDS011;20658;45.630;8.886;2022-09-23T01:59:58;9.75;;;4.90;;
34405;SDS011;20658;45.630;8.886;2022-09-23T02:02:38;11.50;;;4.50;;
34405;SDS011;20658;45.630;8.886;2022-09-23T02:05:17;9.70;;;4.43;;
34405;SDS011;20658;45.630;8.886;2022-09-23T02:07:54;9.30;;;3.72;;
34405;SDS011;20658;45.630;8.886;2022-09-23T02:10:31;10.18;;;4.82;;
34405;SDS011;20658;45.630;8.886;2022-09-23T02:13:04;7.20;;;3.83;;
34405;SDS011;20658;45.630;8.886;2022-09-23T02:15:44;9.93;;;4.32;;
34405;SDS011;20658;45.630;8.886;2022-09-23T02:18:18;10.00;;;4.60;;
34405;SDS011;20658;45.630;8.886;2022-09-23T02:20:57;13.18;;;4.40;;
34405;SDS011;20658;45.630;8.886;2022-09-23T02:23:37;8.05;;;4.15;;
34405;SDS011;20658;45.630;8.886;2022-09-23T02:26:11;9.65;;;5.05;;
34405;SDS011;20658;45.630;8.886;2022-09-23T02:28:54;10.25;;;4.45;;
34405;SDS011;20658;45.630;8.886;2022-09-23T02:31:39;7.97;;;4.30;;
34405;SDS011;20658;45.630;8.886;2022-09-23T02:34:19;6.93;;;4.18;;
34405;SDS011;20658;45.630;8.886;2022-09-23T02:37:04;9.23;;;4.85;;
34405;SDS011;20658;45.630;8.886;2022-09-23T02:39:48;13.35;;;5.30;;
34405;SDS011;20658;45.630;8.886;2022-09-23T02:42:29;9.50;;;4.28;;
34405;SDS011;20658;45.630;8.886;2022-09-23T02:45:05;11.23;;;4.00;;
34405;SDS011;20658;45.630;8.886;2022-09-23T02:47:34;7.15;;;3.50;;
34405;SDS011;20658;45.630;8.886;2022-09-23T02:50:10;9.38;;;4.07;;
34405;SDS011;20658;45.630;8.886;2022-09-23T02:52:40;8.48;;;3.90;;
34405;SDS011;20658;45.630;8.886;2022-09-23T02:55:08;9.38;;;3.70;;
34405;SDS011;20658;45.630;8.886;2022-09-23T02:57:43;9.05;;;4.43;;
34405;SDS011;20658;45.630;8.886;2022-09-23T03:00:18;9.25;;;4.03;;
34405;SDS011;20658;45.630;8.886;2022-09-23T03:02:57;9.65;;;4.07;;
34405;SDS011;20658;45.630;8.886;2022-09-23T03:05:44;7.50;;;4.30;;
34405;SDS011;20658;45.630;8.886;2022-09-23T03:08:29;10.95;;;4.30;;
34405;SDS011;20658;45.630;8.886;2022-09-23T03:11:14;8.93;;;4.38;;
34405;SDS011;20658;45.630;8.886;2022-09-23T03:13:54;12.25;;;4.55;;
34405;SDS011;20658;45.630;8.886;2022-09-23T03:16:33;9.73;;;3.75;;
34405;SDS011;20658;45.630;8.886;2022-09-23T03:19:21;11.27;;;3.30;;
34405;SDS011;20658;45.630;8.886;2022-09-23T03:21:59;7.57;;;3.15;;
34405;SDS011;20658;45.630;8.886;2022-09-23T03:24:35;7.50;;;3.22;;
34405;SDS011;20658;45.630;8.886;2022-09-23T03:27:12;11.10;;;3.58;;
34405;SDS011;20658;45.630;8.886;2022-09-23T03:29:49;7.18;;;3.53;;
34405;SDS011;20658;45.630;8.886;2022-09-23T03:32:20;8.27;;;3.42;;
34405;SDS011;20658;45.630;8.886;2022-09-23T03:34:58;11.82;;;3.30;;
34405;SDS011;20658;45.630;8.886;2022-09-23T03:37:29;9.35;;;3.88;;
34405;SDS011;20658;45.630;8.886;2022-09-23T03:40:10;10.55;;;3.63;;
34405;SDS011;20658;45.630;8.886;2022-09-23T03:42:43;11.10;;;3.13;;
34405;SDS011;20658;45.630;8.886;2022-09-23T03:45:20;10.45;;;3.78;;
34405;SDS011;20658;45.630;8.886;2022-09-23T03:47:59;13.18;;;3.92;;
34405;SDS011;20658;45.630;8.886;2022-09-23T03:50:33;10.07;;;3.60;;
34405;SDS011;20658;45.630;8.886;2022-09-23T03:53:07;11.05;;;3.20;;
34405;SDS011;20658;45.630;8.886;2022-09-23T03:55:45;10.35;;;3.45;;
34405;SDS011;20658;45.630;8.886;2022-09-23T03:58:13;8.73;;;2.72;;
34405;SDS011;20658;45.630;8.886;2022-09-23T04:00:48;9.32;;;2.55;;
34405;SDS011;20658;45.630;8.886;2022-09-23T04:03:21;11.35;;;3.40;;
34405;SDS011;20658;45.630;8.886;2022-09-23T04:05:59;7.60;;;3.67;;
34405;SDS011;20658;45.630;8.886;2022-09-23T04:08:32;8.13;;;3.13;;
34405;SDS011;20658;45.630;8.886;2022-09-23T04:11:02;7.32;;;2.85;;
34405;SDS011;20658;45.630;8.886;2022-09-23T04:13:32;6.85;;;2.50;;
34405;SDS011;20658;45.630;8.886;2022-09-23T04:16:05;6.00;;;2.95;;
34405;SDS011;20658;45.630;8.886;2022-09-23T04:18:38;9.40;;;2.83;;
34405;SDS011;20658;45.630;8.886;2022-09-23T04:21:11;7.20;;;2.83;;
34405;SDS011;20658;45.630;8.886;2022-09-23T04:23:45;9.45;;;3.38;;
34405;SDS011;20658;45.630;8.886;2022-09-23T04:26:20;14.07;;;3.35;;
34405;SDS011;20658;45.630;8.886;2022-09-23T04:28:48;10.80;;;2.92;;
34405;SDS011;20658;45.630;8.886;2022-09-23T04:31:21;9.50;;;2.75;;
34405;SDS011;20658;45.630;8.886;2022-09-23T04:33:51;10.85;;;3.50;;
34405;SDS011;20658;45.630;8.886;2022-09-23T04:36:21;10.98;;;3.55;;
34405;SDS011;20658;45.630;8.886;2022-09-23T04:38:54;12.40;;;3.60;;
34405;SDS011;20658;45.630;8.886;2022-09-23T04:41:29;11.68;;;3.47;;
34405;SDS011;20658;45.630;8.886;2022-09-23T04:44:03;8.27;;;3.50;;
34405;SDS011;20658;45.630;8.886;2022-09-23T04:46:31;9.05;;;3.60;;
34405;SDS011;20658;45.630;8.886;2022-09-23T04:49:00;8.52;;;3.72;;
34405;SDS011;20658;45.630;8.886;2022-09-23T04:51:33;13.98;;;4.53;;
34405;SDS011;20658;45.630;8.886;2022-09-23T04:54:02;9.27;;;3.90;;
34405;SDS011;20658;45.630;8.886;2022-09-23T04:56:37;12.05;;;4.25;;
34405;SDS011;20658;45.630;8.886;2022-09-23T04:59:11;11.70;;;4.03;;
34405;SDS011;20658;45.630;8.886;2022-09-23T05:01:45;9.13;;;3.88;;
34405;SDS011;20658;45.630;8.886;2022-09-23T05:04:13;13.35;;;4.47;;
34405;SDS011;20658;45.630;8.886;2022-09-23T05:06:41;13.60;;;3.90;;
34405;SDS011;20658;45.630;8.886;2022-09-23T05:09:11;12.68;;;4.97;;
34405;SDS011;20658;45.630;8.886;2022-09-23T05:11:44;18.05;;;5.70;;
34405;SDS011;20658;45.630;8.886;2022-09-23T05:14:18;13.90;;;4.82;;
34405;SDS011;20658;45.630;8.886;2022-09-23T05:16:52;15.15;;;5.47;;
34405;SDS011;20658;45.630;8.886;2022-09-23T05:19:25;13.55;;;5.43;;
34405;SDS011;20658;45.630;8.886;2022-09-23T05:21:59;17.60;;;6.10;;
34405;SDS011;20658;45.630;8.886;2022-09-23T05:24:32;12.75;;;5.60;;
34405;SDS011;20658;45.630;8.886;2022-09-23T05:27:07;11.35;;;4.80;;
34405;SDS011;20658;45.630;8.886;2022-09-23T05:29:35;12.93;;;4.88;;
34405;SDS011;20658;45.630;8.886;2022-09-23T05:32:03;15.45;;;5.15;;
34405;SDS011;20658;45.630;8.886;2022-09-23T05:34:37;19.92;;;5.75;;
34405;SDS011;20658;45.630;8.886;2022-09-23T05:37:05;15.38;;;5.55;;
34405;SDS011;20658;45.630;8.886;2022-09-23T05:39:34;15.50;;;4.95;;
34405;SDS011;20658;45.630;8.886;2022-09-23T05:42:09;10.65;;;5.13;;
34405;SDS011;20658;45.630;8.886;2022-09-23T05:44:42;12.23;;;4.85;;
34405;SDS011;20658;45.630;8.886;2022-09-23T05:47:17;25.13;;;6.35;;
34405;SDS011;20658;45.630;8.886;2022-09-23T05:49:50;20.00;;;4.75;;
34405;SDS011;20658;45.630;8.886;2022-09-23T05:52:24;16.48;;;4.43;;
34405;SDS011;20658;45.630;8.886;2022-09-23T05:54:57;17.23;;;4.32;;
34405;SDS011;20658;45.630;8.886;2022-09-23T05:57:32;16.42;;;5.00;;
34405;SDS011;20658;45.630;8.886;2022-09-23T06:00:06;17.90;;;4.50;;
34405;SDS011;20658;45.630;8.886;2022-09-23T06:02:41;14.68;;;4.88;;
34405;SDS011;20658;45.630;8.886;2022-09-23T06:05:14;13.32;;;4.18;;
34405;SDS011;20658;45.630;8.886;2022-09-23T06:07:47;12.70;;;4.43;;
34405;SDS011;20658;45.630;8.886;2022-09-23T06:10:21;16.23;;;5.10;;
34405;SDS011;20658;45.630;8.886;2022-09-23T06:12:55;19.92;;;3.88;;
34405;SDS011;20658;45.630;8.886;2022-09-23T06:15:29;11.80;;;3.67;;
34405;SDS011;20658;45.630;8.886;2022-09-23T06:18:02;16.83;;;4.97;;
34405;SDS011;20658;45.630;8.886;2022-09-23T06:20:36;16.70;;;4.00;;
34405;SDS011;20658;45.630;8.886;2022-09-23T06:23:10;13.02;;;3.90;;
34405;SDS011;20658;45.630;8.886;2022-09-23T06:25:43;13.55;;;4.25;;
34405;SDS011;20658;45.630;8.886;2022-09-23T06:28:18;11.93;;;4.22;;
34405;SDS011;20658;45.630;8.886;2022-09-23T06:30:55;21.65;;;9.15;;
34405;SDS011;20658;45.630;8.886;2022-09-23T06:33:29;16.08;;;7.15;;
34405;SDS011;20658;45.630;8.886;2022-09-23T06:36:03;14.60;;;5.20;;
34405;SDS011;20658;45.630;8.886;2022-09-23T06:38:38;15.70;;;5.25;;
34405;SDS011;20658;45.630;8.886;2022-09-23T06:41:14;20.17;;;5.07;;
34405;SDS011;20658;45.630;8.886;2022-09-23T06:43:49;17.48;;;5.10;;
34405;SDS011;20658;45.630;8.886;2022-09-23T06:46:22;10.52;;;3.90;;
34405;SDS011;20658;45.630;8.886;2022-09-23T06:48:55;9.23;;;3.35;;
34405;SDS011;20658;45.630;8.886;2022-09-23T06:51:29;18.10;;;4.60;;
34405;SDS011;20658;45.630;8.886;2022-09-23T06:54:02;13.93;;;3.75;;
34405;SDS011;20658;45.630;8.886;2022-09-23T06:56:36;9.77;;;3.90;;
34405;SDS011;20658;45.630;8.886;2022-09-23T06:59:11;9.65;;;3.33;;
34405;SDS011;20658;45.630;8.886;2022-09-23T07:01:47;8.75;;;3.50;;
34405;SDS011;20658;45.630;8.886;2022-09-23T07:04:20;11.40;;;3.75;;
34405;SDS011;20658;45.630;8.886;2022-09-23T07:06:54;13.57;;;3.42;;
34405;SDS011;20658;45.630;8.886;2022-09-23T07:09:27;10.27;;;3.88;;
34405;SDS011;20658;45.630;8.886;2022-09-23T07:12:01;12.43;;;3.83;;
34405;SDS011;20658;45.630;8.886;2022-09-23T07:14:30;8.30;;;2.80;;
34405;SDS011;20658;45.630;8.886;2022-09-23T07:17:04;9.23;;;3.72;;
34405;SDS011;20658;45.630;8.886;2022-09-23T07:19:37;8.23;;;3.33;;
34405;SDS011;20658;45.630;8.886;2022-09-23T07:22:11;11.93;;;3.53;;
34405;SDS011;20658;45.630;8.886;2022-09-23T07:24:44;13.60;;;3.97;;
34405;SDS011;20658;45.630;8.886;2022-09-23T07:27:17;12.05;;;3.63;;
34405;SDS011;20658;45.630;8.886;2022-09-23T07:29:47;10.18;;;3.92;;
34405;SDS011;20658;45.630;8.886;2022-09-23T07:32:22;12.57;;;3.45;;
34405;SDS011;20658;45.630;8.886;2022-09-23T07:34:55;13.13;;;3.85;;
34405;SDS011;20658;45.630;8.886;2022-09-23T07:37:29;9.75;;;3.83;;
34405;SDS011;20658;45.630;8.886;2022-09-23T07:40:02;16.25;;;4.05;;
34405;SDS011;20658;45.630;8.886;2022-09-23T07:42:36;15.73;;;4.68;;
34405;SDS011;20658;45.630;8.886;2022-09-23T07:45:12;16.75;;;3.83;;
34405;SDS011;20658;45.630;8.886;2022-09-23T07:47:46;13.27;;;3.75;;
34405;SDS011;20658;45.630;8.886;2022-09-23T07:50:20;14.73;;;3.80;;
34405;SDS011;20658;45.630;8.886;2022-09-23T07:52:53;15.23;;;3.85;;
34405;SDS011;20658;45.630;8.886;2022-09-23T07:55:26;17.88;;;3.85;;
34405;SDS011;20658;45.630;8.886;2022-09-23T07:57:59;21.88;;;3.97;;
34405;SDS011;20658;45.630;8.886;2022-09-23T08:00:34;17.38;;;4.57;;
34405;SDS011;20658;45.630;8.886;2022-09-23T08:03:07;16.92;;;3.53;;
34405;SDS011;20658;45.630;8.886;2022-09-23T08:05:41;9.68;;;3.15;;
34405;SDS011;20658;45.630;8.886;2022-09-23T08:08:14;14.18;;;3.30;;
34405;SDS011;20658;45.630;8.886;2022-09-23T08:10:47;9.60;;;2.72;;
34405;SDS011;20658;45.630;8.886;2022-09-23T08:13:20;17.90;;;4.05;;
34405;SDS011;20658;45.630;8.886;2022-09-23T08:15:55;12.40;;;3.75;;
34405;SDS011;20658;45.630;8.886;2022-09-23T08:18:29;16.75;;;4.40;;
34405;SDS011;20658;45.630;8.886;2022-09-23T08:21:02;13.25;;;3.00;;
34405;SDS011;20658;45.630;8.886;2022-09-23T08:23:36;13.95;;;3.65;;
34405;SDS011;20658;45.630;8.886;2022-09-23T08:26:09;6.97;;;2.15;;
34405;SDS011;20658;45.630;8.886;2022-09-23T08:28:43;14.00;;;3.08;;
34405;SDS011;20658;45.630;8.886;2022-09-23T08:31:20;11.32;;;2.85;;
34405;SDS011;20658;45.630;8.886;2022-09-23T08:33:54;10.80;;;3.13;;
34405;SDS011;20658;45.630;8.886;2022-09-23T08:36:29;11.63;;;3.28;;
34405;SDS011;20658;45.630;8.886;2022-09-23T08:39:04;12.35;;;3.30;;
34405;SDS011;20658;45.630;8.886;2022-09-23T08:41:39;9.95;;;3.03;;
34405;SDS011;20658;45.630;8.886;2022-09-23T08:44:22;19.08;;;3.15;;
34405;SDS011;20658;45.630;8.886;2022-09-23T08:47:02;14.80;;;3.15;;
34405;SDS011;20658;45.630;8.886;2022-09-23T08:49:44;11.05;;;3.08;;
34405;SDS011;20658;45.630;8.886;2022-09-23T08:52:28;11.43;;;2.92;;
34405;SDS011;20658;45.630;8.886;2022-09-23T08:55:08;12.95;;;2.75;;
34405;SDS011;20658;45.630;8.886;2022-09-23T08:57:48;13.52;;;2.55;;
34405;SDS011;20658;45.630;8.886;2022-09-23T09:00:39;11.30;;;2.60;;
34405;SDS011;20658;45.630;8.886;2022-09-23T09:03:18;8.02;;;2.25;;
34405;SDS011;20658;45.630;8.886;2022-09-23T09:05:55;10.63;;;1.80;;
34405;SDS011;20658;45.630;8.886;2022-09-23T09:08:29;9.48;;;2.15;;
34405;SDS011;20658;45.630;8.886;2022-09-23T09:11:07;36.75;;;23.42;;
34405;SDS011;20658;45.630;8.886;2022-09-23T09:13:43;24.65;;;14.30;;
34405;SDS011;20658;45.630;8.886;2022-09-23T09:16:29;8.82;;;3.53;;
34405;SDS011;20658;45.630;8.886;2022-09-23T09:19:20;6.07;;;2.17;;
34405;SDS011;20658;45.630;8.886;2022-09-23T09:25:34;11.70;;;3.22;;
34405;SDS011;20658;45.630;8.886;2022-09-23T09:28:13;10.60;;;3.38;;
34405;SDS011;20658;45.630;8.886;2022-09-23T09:30:52;6.72;;;3.25;;
34405;SDS011;20658;45.630;8.886;2022-09-23T09:33:30;19.25;;;7.10;;
34405;SDS011;20658;45.630;8.886;2022-09-23T09:36:18;10.18;;;2.65;;
34405;SDS011;20658;45.630;8.886;2022-09-23T09:38:58;8.57;;;3.25;;
34405;SDS011;20658;45.630;8.886;2022-09-23T09:41:32;7.95;;;2.38;;
34405;SDS011;20658;45.630;8.886;2022-09-23T09:44:07;7.85;;;2.40;;
34405;SDS011;20658;45.630;8.886;2022-09-23T09:46:55;6.80;;;2.13;;
34405;SDS011;20658;45.630;8.886;2022-09-23T09:49:44;7.38;;;2.28;;
34405;SDS011;20658;45.630;8.886;2022-09-23T09:52:24;10.43;;;3.05;;
34405;SDS011;20658;45.630;8.886;2022-09-23T09:55:14;9.38;;;3.30;;
34405;SDS011;20658;45.630;8.886;2022-09-23T09:57:56;7.82;;;3.17;;
34405;SDS011;20658;45.630;8.886;2022-09-23T10:00:36;8.73;;;3.03;;
34405;SDS011;20658;45.630;8.886;2022-09-23T10:03:24;8.05;;;2.90;;
34405;SDS011;20658;45.630;8.886;2022-09-23T10:06:14;5.68;;;2.90;;
34405;SDS011;20658;45.630;8.886;2022-09-23T10:09:18;14.10;;;3.80;;
34405;SDS011;20658;45.630;8.886;2022-09-23T10:12:10;6.07;;;3.17;;
34405;SDS011;20658;45.630;8.886;2022-09-23T10:14:49;8.95;;;3.17;;
34405;SDS011;20658;45.630;8.886;2022-09-23T10:17:28;11.55;;;3.10;;
34405;SDS011;20658;45.630;8.886;2022-09-23T10:20:05;8.05;;;2.75;;
34405;SDS011;20658;45.630;8.886;2022-09-23T10:22:40;10.30;;;3.13;;
34405;SDS011;20658;45.630;8.886;2022-09-23T10:25:16;12.93;;;3.30;;
34405;SDS011;20658;45.630;8.886;2022-09-23T10:27:52;10.25;;;3.20;;
34405;SDS011;20658;45.630;8.886;2022-09-23T10:30:26;8.63;;;3.00;;
34405;SDS011;20658;45.630;8.886;2022-09-23T10:33:00;13.32;;;3.20;;
34405;SDS011;20658;45.630;8.886;2022-09-23T10:35:33;6.82;;;3.58;;
34405;SDS011;20658;45.630;8.886;2022-09-23T10:38:07;9.13;;;3.28;;
34405;SDS011;20658;45.630;8.886;2022-09-23T10:40:43;7.30;;;3.45;;
34405;SDS011;20658;45.630;8.886;2022-09-23T10:43:36;9.32;;;3.22;;
34405;SDS011;20658;45.630;8.886;2022-09-23T10:46:35;11.90;;;3.20;;
34405;SDS011;20658;45.630;8.886;2022-09-23T10:49:15;6.38;;;3.10;;
34405;SDS011;20658;45.630;8.886;2022-09-23T10:52:26;5.50;;;3.10;;
34405;SDS011;20658;45.630;8.886;2022-09-23T10:55:21;10.27;;;3.42;;
34405;SDS011;20658;45.630;8.886;2022-09-23T10:58:13;7.47;;;3.20;;
34405;SDS011;20658;45.630;8.886;2022-09-23T11:01:03;8.77;;;4.15;;
34405;SDS011;20658;45.630;8.886;2022-09-23T11:03:54;10.00;;;4.57;;
34405;SDS011;20658;45.630;8.886;2022-09-23T11:06:59;8.52;;;3.70;;
34405;SDS011;20658;45.630;8.886;2022-09-23T11:09:48;6.35;;;3.30;;
34405;SDS011;20658;45.630;8.886;2022-09-23T11:12:48;8.52;;;3.58;;
34405;SDS011;20658;45.630;8.886;2022-09-23T11:15:37;9.80;;;3.45;;
34405;SDS011;20658;45.630;8.886;2022-09-23T11:18:34;3.83;;;2.67;;
34405;SDS011;20658;45.630;8.886;2022-09-23T11:21:38;11.07;;;3.63;;
34405;SDS011;20658;45.630;8.886;2022-09-23T11:27:35;10.10;;;2.88;;
34405;SDS011;20658;45.630;8.886;2022-09-23T11:30:21;11.73;;;3.33;;
34405;SDS011;20658;45.630;8.886;2022-09-23T11:33:12;17.45;;;3.35;;
34405;SDS011;20658;45.630;8.886;2022-09-23T11:36:02;12.05;;;3.22;;
34405;SDS011;20658;45.630;8.886;2022-09-23T11:38:40;11.85;;;3.35;;
34405;SDS011;20658;45.630;8.886;2022-09-23T11:41:19;7.38;;;3.40;;
34405;SDS011;20658;45.630;8.886;2022-09-23T11:43:59;14.10;;;3.80;;
34405;SDS011;20658;45.630;8.886;2022-09-23T11:46:40;11.18;;;4.07;;
34405;SDS011;20658;45.630;8.886;2022-09-23T11:49:19;8.48;;;3.28;;
34405;SDS011;20658;45.630;8.886;2022-09-23T11:52:01;10.10;;;3.30;;
34405;SDS011;20658;45.630;8.886;2022-09-23T11:54:39;5.75;;;2.97;;
34405;SDS011;20658;45.630;8.886;2022-09-23T11:57:15;7.47;;;3.15;;
34405;SDS011;20658;45.630;8.886;2022-09-23T11:59:55;11.20;;;3.42;;
34405;SDS011;20658;45.630;8.886;2022-09-23T12:02:32;7.75;;;2.97;;
34405;SDS011;20658;45.630;8.886;2022-09-23T12:05:21;9.13;;;3.08;;
34405;SDS011;20658;45.630;8.886;2022-09-23T12:08:00;7.07;;;3.42;;
34405;SDS011;20658;45.630;8.886;2022-09-23T12:10:43;7.20;;;3.10;;
34405;SDS011;20658;45.630;8.886;2022-09-23T12:13:25;10.15;;;3.17;;
34405;SDS011;20658;45.630;8.886;2022-09-23T12:16:26;10.02;;;3.30;;
34405;SDS011;20658;45.630;8.886;2022-09-23T12:19:28;13.23;;;3.17;;
34405;SDS011;20658;45.630;8.886;2022-09-23T12:22:34;8.00;;;3.53;;
34405;SDS011;20658;45.630;8.886;2022-09-23T12:25:25;8.63;;;3.78;;
34405;SDS011;20658;45.630;8.886;2022-09-23T12:28:17;5.97;;;2.85;;
34405;SDS011;20658;45.630;8.886;2022-09-23T12:30:57;6.05;;;3.10;;
34405;SDS011;20658;45.630;8.886;2022-09-23T12:33:32;8.68;;;3.45;;
34405;SDS011;20658;45.630;8.886;2022-09-23T12:36:07;9.45;;;3.58;;
34405;SDS011;20658;45.630;8.886;2022-09-23T12:38:47;6.22;;;3.42;;
34405;SDS011;20658;45.630;8.886;2022-09-23T12:41:25;7.45;;;3.30;;
34405;SDS011;20658;45.630;8.886;2022-09-23T12:44:12;6.32;;;2.50;;
34405;SDS011;20658;45.630;8.886;2022-09-23T12:57:04;7.43;;;3.25;;
34405;SDS011;20658;45.630;8.886;2022-09-23T13:02:51;9.13;;;2.90;;
34405;SDS011;20658;45.630;8.886;2022-09-23T13:06:00;9.30;;;3.70;;
34405;SDS011;20658;45.630;8.886;2022-09-23T13:08:51;10.52;;;3.33;;
34405;SDS011;20658;45.630;8.886;2022-09-23T13:11:26;8.45;;;3.20;;
34405;SDS011;20658;45.630;8.886;2022-09-23T13:14:02;6.65;;;3.45;;
34405;SDS011;20658;45.630;8.886;2022-09-23T13:16:33;14.88;;;3.50;;
34405;SDS011;20658;45.630;8.886;2022-09-23T13:19:41;9.27;;;3.10;;
34405;SDS011;20658;45.630;8.886;2022-09-23T13:25:15;11.73;;;3.58;;
34405;SDS011;20658;45.630;8.886;2022-09-23T13:27:53;7.95;;;3.60;;
34405;SDS011;20658;45.630;8.886;2022-09-23T13:30:29;7.10;;;3.65;;
34405;SDS011;20658;45.630;8.886;2022-09-23T13:33:04;12.25;;;2.70;;
34405;SDS011;20658;45.630;8.886;2022-09-23T13:35:42;10.80;;;3.03;;
34405;SDS011;20658;45.630;8.886;2022-09-23T13:38:22;11.30;;;3.42;;
34405;SDS011;20658;45.630;8.886;2022-09-23T13:40:59;10.40;;;3.45;;
34405;SDS011;20658;45.630;8.886;2022-09-23T13:43:38;9.32;;;3.13;;
34405;SDS011;20658;45.630;8.886;2022-09-23T13:46:15;9.48;;;3.55;;
34405;SDS011;20658;45.630;8.886;2022-09-23T13:48:52;5.25;;;2.75;;
34405;SDS011;20658;45.630;8.886;2022-09-23T13:51:27;10.57;;;2.80;;
34405;SDS011;20658;45.630;8.886;2022-09-23T13:54:05;10.40;;;3.20;;
34405;SDS011;20658;45.630;8.886;2022-09-23T13:56:53;8.10;;;3.55;;
34405;SDS011;20658;45.630;8.886;2022-09-23T13:59:29;11.23;;;3.38;;
34405;SDS011;20658;45.630;8.886;2022-09-23T14:02:10;9.52;;;3.85;;
34405;SDS011;20658;45.630;8.886;2022-09-23T14:04:45;7.57;;;3.10;;
34405;SDS011;20658;45.630;8.886;2022-09-23T14:07:19;11.80;;;3.15;;
34405;SDS011;20658;45.630;8.886;2022-09-23T14:09:53;11.70;;;4.10;;
34405;SDS011;20658;45.630;8.886;2022-09-23T14:12:27;10.00;;;4.07;;
34405;SDS011;20658;45.630;8.886;2022-09-23T14:15:02;7.53;;;3.78;;
34405;SDS011;20658;45.630;8.886;2022-09-23T14:17:37;14.23;;;8.88;;
34405;SDS011;20658;45.630;8.886;2022-09-23T14:20:11;9.50;;;4.43;;
34405;SDS011;20658;45.630;8.886;2022-09-23T14:22:46;8.15;;;3.65;;
34405;SDS011;20658;45.630;8.886;2022-09-23T14:25:19;8.43;;;3.60;;
34405;SDS011;20658;45.630;8.886;2022-09-23T14:27:53;9.48;;;3.17;;
34405;SDS011;20658;45.630;8.886;2022-09-23T14:30:27;12.93;;;3.83;;
34405;SDS011;20658;45.630;8.886;2022-09-23T14:33:01;11.73;;;3.40;;
34405;SDS011;20658;45.630;8.886;2022-09-23T14:35:42;5.35;;;2.60;;
34405;SDS011;20658;45.630;8.886;2022-09-23T14:38:22;10.70;;;3.33;;
34405;SDS011;20658;45.630;8.886;2022-09-23T14:41:17;12.90;;;3.65;;
34405;SDS011;20658;45.630;8.886;2022-09-23T14:43:54;10.77;;;3.90;;
34405;SDS011;20658;45.630;8.886;2022-09-23T14:46:32;10.90;;;3.55;;
34405;SDS011;20658;45.630;8.886;2022-09-23T14:49:12;10.98;;;3.65;;
34405;SDS011;20658;45.630;8.886;2022-09-23T14:51:48;14.60;;;3.80;;
34405;SDS011;20658;45.630;8.886;2022-09-23T14:54:34;9.00;;;2.97;;
34405;SDS011;20658;45.630;8.886;2022-09-23T14:57:21;10.57;;;3.22;;
34405;SDS011;20658;45.630;8.886;2022-09-23T14:59:59;8.75;;;3.03;;
34405;SDS011;20658;45.630;8.886;2022-09-23T15:02:56;11.13;;;3.45;;
34405;SDS011;20658;45.630;8.886;2022-09-23T15:05:37;13.20;;;3.35;;
34405;SDS011;20658;45.630;8.886;2022-09-23T15:08:14;9.43;;;3.78;;
34405;SDS011;20658;45.630;8.886;2022-09-23T15:10:52;10.70;;;3.60;;
34405;SDS011;20658;45.630;8.886;2022-09-23T15:13:26;6.72;;;2.83;;
34405;SDS011;20658;45.630;8.886;2022-09-23T15:16:04;10.05;;;3.25;;
34405;SDS011;20658;45.630;8.886;2022-09-23T15:18:39;7.28;;;3.20;;
34405;SDS011;20658;45.630;8.886;2022-09-23T15:21:11;8.68;;;3.05;;
34405;SDS011;20658;45.630;8.886;2022-09-23T15:23:52;9.52;;;3.65;;
34405;SDS011;20658;45.630;8.886;2022-09-23T15:26:22;15.85;;;3.50;;
34405;SDS011;20658;45.630;8.886;2022-09-23T15:28:52;10.73;;;3.78;;
34405;SDS011;20658;45.630;8.886;2022-09-23T15:31:23;8.83;;;3.07;;
34405;SDS011;20658;45.630;8.886;2022-09-23T15:33:58;12.38;;;3.28;;
34405;SDS011;20658;45.630;8.886;2022-09-23T15:36:32;7.65;;;3.67;;
34405;SDS011;20658;45.630;8.886;2022-09-23T15:39:01;8.23;;;3.22;;
34405;SDS011;20658;45.630;8.886;2022-09-23T15:41:38;8.45;;;2.97;;
34405;SDS011;20658;45.630;8.886;2022-09-23T15:44:14;8.32;;;3.42;;
34405;SDS011;20658;45.630;8.886;2022-09-23T15:46:50;7.22;;;2.90;;
34405;SDS011;20658;45.630;8.886;2022-09-23T15:49:26;9.40;;;3.75;;
34405;SDS011;20658;45.630;8.886;2022-09-23T15:51:59;19.08;;;4.95;;
34405;SDS011;20658;45.630;8.886;2022-09-23T15:54:29;9.98;;;4.57;;
34405;SDS011;20658;45.630;8.886;2022-09-23T15:57:04;8.23;;;3.97;;
34405;SDS011;20658;45.630;8.886;2022-09-23T15:59:37;12.75;;;4.20;;
34405;SDS011;20658;45.630;8.886;2022-09-23T16:02:09;10.48;;;3.70;;
34405;SDS011;20658;45.630;8.886;2022-09-23T16:04:52;8.25;;;3.22;;
34405;SDS011;20658;45.630;8.886;2022-09-23T16:07:26;11.15;;;3.45;;
34405;SDS011;20658;45.630;8.886;2022-09-23T16:09:59;11.60;;;3.17;;